Terminal Aerodrome Forecast
Issued by NWS Corpus Christi, TX

Home | Current Version | Previous Version | Text Only | Print | Product List | Glossary On
Versions: 1 2 3 4 5 6 7 8 9 10 11 12 13 14 15 16 17
000
FTUS44 KCRP 300523
TAFCRP
TAF
KCRP 300523Z 3006/3106 13010KT P6SM FEW015 BKN250
     FM300700 13007KT P6SM BKN015 OVC250
     FM301500 15014G18KT P6SM SCT025 BKN035
     FM302000 13015G22KT P6SM SCT040 BKN250
     FM310200 13008KT P6SM FEW020 BKN250=

USA.gov is the U.S. government's official web portal to all federal, state and local government web resources and services.